クライストチャーチ の空港の天気 - METARとTAF

クライストチャーチ国際空港 ( NZCH / CHC ) - ニュージーランド クライストチャーチ
飛行場実況気象(Metar)
観測時間08/15 07:00 NZST (08/14 19:00 UTC)
風向・風速静穏 0m/s
視程8000m
天気現象
全天の8割程度の雲 雲底高度 30m
気温-4℃
湿度100%
気圧1026hPa
METARNZCH 141900Z AUTO 00000KT 8000 R02/1100U R20/P2000N BKN001/// M04/M04 Q1026 BECMG 9999 FEW001 TEMPO 0500 FG
過去の天気等 Google飛行場航空写真 Wunderground天気予報

過去48時間のMETAR

飛行場予報(TAF)
発表時間: 8/15 05:25 NZST (8/14 17:25 UTC)
予報対象時間: 15日6時 NZST ~ 16日6時 NZST
風向・風速北西 3m/s
視程2000m
天気現象もや
なし
15日6時 NZST ~ 15日8時 NZST に一時的に
視程500m
天気現象
15日8時 NZST ~ 15日10時 NZST に徐々に
風向・風速南南西 5m/s
視程10km以上
天気現象運行に影響にある天気現象が終了
15日22時 NZST ~ 15日24時 NZST に徐々に
風向・風速西 3m/s
16日0時 NZST から 確率 30% で
視程2000m
天気現象もや
TAF COR NZCH 141725Z 1418/1518 31005KT 2000 BR NSC
TEMPO 1418/1420 0500 FG
BECMG 1420/1422 20010KT 9999 NSW
BECMG 1510/1512 28005KT
PROB30 1512/1518 2000 BR